Betty K Vi — HP5720 — position and weather

sailwx.info

Track history (hours):
 
Tides and Currents Weather Stations Pressure Air Temp Water Temp Dewpoint Dewpoint Depression Visibility Wind Speed Wind Dir Waves Ship Positions

Betty K Vi

Last reported at 2018-Feb-18 20:24 UTC. Time now 2018-Feb-20 02:01 UTC.
Position N 25°50' W 079°38'.

Length 60 m; draft 3.2 m.

Type: Cargo ship. MMSI: 354543000.

Date/timePositionNaut miles runAvg speedWind from/ knotsBaromVisibWave heightAir tempDewpointWater temp
2018-Feb-18 20:24N 25°50' W 079°38'4 9.3
2018-Feb-18 20:01N 25°49' W 079°42'5 9.1
2018-Feb-18 19:30N 25°49' W 079°47'5 9.2
2018-Feb-18 19:00N 25°48' W 079°52'5 9.5
2018-Feb-18 18:30N 25°47' W 079°57'5 9.4
2018-Feb-18 18:00N 25°47' W 080°02'4 8.7
2018-Feb-18 17:31N 25°46' W 080°07'4 7.3
2018-Feb-18 17:00N 25°46' W 080°11'1 2.5
2018-Feb-18 16:30N 25°47' W 080°12'1 2.8
2018-Feb-18 16:00N 25°47' W 080°14'1 2.2
2018-Feb-18 15:30N 25°48' W 080°15'1 1.1
2018-Feb-18 14:59N 25°48' W 080°15'0 0.0
2018-Feb-18 14:29N 25°48' W 080°15'0 0.0
2018-Feb-18 13:59N 25°48' W 080°15'0 0.0
2018-Feb-18 13:30N 25°48' W 080°15'0 0.0
2018-Feb-18 12:58N 25°48' W 080°15'0 0.0
2018-Feb-18 12:28N 25°48' W 080°15'0 0.0
2018-Feb-18 11:59N 25°48' W 080°15'0 0.0
2018-Feb-18 11:30N 25°48' W 080°15'0 0.0
2018-Feb-18 10:59N 25°48' W 080°15'0 0.0
2018-Feb-18 10:29N 25°48' W 080°15'0 0.0
2018-Feb-18 09:53N 25°48' W 080°15'0 0.0
2018-Feb-18 09:29N 25°48' W 080°15'0 0.0
2018-Feb-18 08:59N 25°48' W 080°15'0 0.0
2018-Feb-18 08:29N 25°48' W 080°15'0 0.0
2018-Feb-18 07:59N 25°48' W 080°15'0 0.0
2018-Feb-18 07:29N 25°48' W 080°15'0 0.0
2018-Feb-18 06:56N 25°48' W 080°15'0 0.0
2018-Feb-18 06:26N 25°48' W 080°15'0 0.0
2018-Feb-18 05:59N 25°48' W 080°15'0 0.0
2018-Feb-18 05:29N 25°48' W 080°15'0 0.0
2018-Feb-18 04:59N 25°48' W 080°15'0 0.0
2018-Feb-18 04:29N 25°48' W 080°15'0 0.0
2018-Feb-18 03:59N 25°48' W 080°15'0 0.0
2018-Feb-18 03:29N 25°48' W 080°15'0 0.0
2018-Feb-18 02:59N 25°48' W 080°15'0 0.0
2018-Feb-18 02:29N 25°48' W 080°15'0 0.0
2018-Feb-18 01:59N 25°48' W 080°15'0 0.0
2018-Feb-18 01:29N 25°48' W 080°15'0 0.0
2018-Feb-18 00:59N 25°48' W 080°15'0 0.0
2018-Feb-18 00:29N 25°48' W 080°15'0 0.0
2018-Feb-17 23:59N 25°48' W 080°15'0 0.0
2018-Feb-17 23:29N 25°48' W 080°15'0 0.0
2018-Feb-17 22:59N 25°48' W 080°15'0 0.0
2018-Feb-17 22:29N 25°48' W 080°15'0 0.0
2018-Feb-17 21:59N 25°48' W 080°15'0 0.0
2018-Feb-17 21:29N 25°48' W 080°15'0 0.0
2018-Feb-17 20:59N 25°48' W 080°15'0 0.0
2018-Feb-17 20:29N 25°48' W 080°15'0 0.0
2018-Feb-17 19:59N 25°48' W 080°15'0 0.0
2018-Feb-17 19:29N 25°48' W 080°15'0 0.0
2018-Feb-17 18:53N 25°48' W 080°15'0 0.0
2018-Feb-17 18:29N 25°48' W 080°15'0 0.0
2018-Feb-17 17:56N 25°48' W 080°15'0 0.0
2018-Feb-17 17:29N 25°48' W 080°15'0 0.0
2018-Feb-17 16:59N 25°48' W 080°15'0 0.0
2018-Feb-17 16:29N 25°48' W 080°15'0 0.0
2018-Feb-17 15:56N 25°48' W 080°15'0 0.0
2018-Feb-17 15:29N 25°48' W 080°15'0 0.0
2018-Feb-17 14:59N 25°48' W 080°15'0 0.0
2018-Feb-17 14:26N 25°48' W 080°15'0 0.0
2018-Feb-17 13:59N 25°48' W 080°15'0 0.0
2018-Feb-17 13:26N 25°48' W 080°15'0 0.0
2018-Feb-17 12:56N 25°48' W 080°15'0 0.0
2018-Feb-17 12:25N 25°48' W 080°15'0 0.0
2018-Feb-17 11:58N 25°48' W 080°15'0 0.0
2018-Feb-17 11:28N 25°48' W 080°15'0 0.0
2018-Feb-17 10:58N 25°48' W 080°15'0 0.0
2018-Feb-17 10:28N 25°48' W 080°15'0 0.0
2018-Feb-17 09:58N 25°48' W 080°15'0 0.0
2018-Feb-17 09:28N 25°48' W 080°15'0 0.0
2018-Feb-17 08:58N 25°48' W 080°15'0 0.0
2018-Feb-17 08:28N 25°48' W 080°15'0 0.0
2018-Feb-17 07:58N 25°48' W 080°15'0 0.0
2018-Feb-17 07:28N 25°48' W 080°15'0 0.0
2018-Feb-17 06:58N 25°48' W 080°15'0 0.0
2018-Feb-17 06:28N 25°48' W 080°15'0 0.0
2018-Feb-17 05:58N 25°48' W 080°15'0 0.0
2018-Feb-17 05:28N 25°48' W 080°15'0 0.0
2018-Feb-17 04:58N 25°48' W 080°15'0 0.0
2018-Feb-17 04:22N 25°48' W 080°15'0 0.0
2018-Feb-17 03:55N 25°48' W 080°15'0 0.0
2018-Feb-17 03:28N 25°48' W 080°15'0 0.0
2018-Feb-17 02:58N 25°48' W 080°15'0 0.0
2018-Feb-17 02:28N 25°48' W 080°15'0 0.0
2018-Feb-17 01:55N 25°48' W 080°15'0 0.0
2018-Feb-17 01:25N 25°48' W 080°15'0 0.0
2018-Feb-17 01:00N 25°48' W 080°15'0 0.0
2018-Feb-17 00:25N 25°48' W 080°15'0 0.0
2018-Feb-16 23:58N 25°48' W 080°15'0 0.0
2018-Feb-16 23:28N 25°48' W 080°15'0 0.0
2018-Feb-16 22:58N 25°48' W 080°15'0 0.0
2018-Feb-16 22:28N 25°48' W 080°15'0 0.0
2018-Feb-16 21:58N 25°48' W 080°15'0 0.0
2018-Feb-16 21:29N 25°48' W 080°15'0 0.0
2018-Feb-16 20:59N 25°48' W 080°15'0 0.0
2018-Feb-16 20:29N 25°48' W 080°15'0 0.0
2018-Feb-16 19:59N 25°48' W 080°15'0 0.0
2018-Feb-16 19:30N 25°48' W 080°15'0 0.0
2018-Feb-16 19:00N 25°48' W 080°15'0 0.0
2018-Feb-16 18:30N 25°48' W 080°15'0 0.0
2018-Feb-16 18:00N 25°48' W 080°15'0 0.0
2018-Feb-16 17:30N 25°48' W 080°15'1 2.3
2018-Feb-16 17:00N 25°47' W 080°14'2 3.5
2018-Feb-16 16:31N 25°47' W 080°12'1 3.0
2018-Feb-16 16:00N 25°46' W 080°11'3 5.4
2018-Feb-16 15:30N 25°46' W 080°08'3 7.0
2018-Feb-16 15:00N 25°44' W 080°05'510.7
2018-Feb-16 14:30N 25°39' W 080°04'611.8
2018-Feb-16 14:00N 25°33' W 080°03'  
Track history (hours):
 
Tides and Currents Weather Stations Pressure Air Temp Water Temp Dewpoint Dewpoint Depression Visibility Wind Speed Wind Dir Waves Ship Positions

Betty K Vi

Last reported at 2018-Feb-18 20:24 UTC. Time now 2018-Feb-20 02:01 UTC.
Position N 25°50' W 079°38'.

Length 60 m; draft 3.2 m.

Type: Cargo ship. MMSI: 354543000.

Date/timePositionNaut miles runAvg speedWind from/ knotsBaromVisibWave heightAir tempDewpointWater temp
2018-Feb-18 20:24N 25°50' W 079°38'4 9.3
2018-Feb-18 20:01N 25°49' W 079°42'5 9.1
2018-Feb-18 19:30N 25°49' W 079°47'5 9.2
2018-Feb-18 19:00N 25°48' W 079°52'5 9.5
2018-Feb-18 18:30N 25°47' W 079°57'5 9.4
2018-Feb-18 18:00N 25°47' W 080°02'4 8.7
2018-Feb-18 17:31N 25°46' W 080°07'4 7.3
2018-Feb-18 17:00N 25°46' W 080°11'1 2.5
2018-Feb-18 16:30N 25°47' W 080°12'1 2.8
2018-Feb-18 16:00N 25°47' W 080°14'1 2.2
2018-Feb-18 15:30N 25°48' W 080°15'1 1.1
2018-Feb-18 14:59N 25°48' W 080°15'0 0.0
2018-Feb-18 14:29N 25°48' W 080°15'0 0.0
2018-Feb-18 13:59N 25°48' W 080°15'0 0.0
2018-Feb-18 13:30N 25°48' W 080°15'0 0.0
2018-Feb-18 12:58N 25°48' W 080°15'0 0.0
2018-Feb-18 12:28N 25°48' W 080°15'0 0.0
2018-Feb-18 11:59N 25°48' W 080°15'0 0.0
2018-Feb-18 11:30N 25°48' W 080°15'0 0.0
2018-Feb-18 10:59N 25°48' W 080°15'0 0.0
2018-Feb-18 10:29N 25°48' W 080°15'0 0.0
2018-Feb-18 09:53N 25°48' W 080°15'0 0.0
2018-Feb-18 09:29N 25°48' W 080°15'0 0.0
2018-Feb-18 08:59N 25°48' W 080°15'0 0.0
2018-Feb-18 08:29N 25°48' W 080°15'0 0.0
2018-Feb-18 07:59N 25°48' W 080°15'0 0.0
2018-Feb-18 07:29N 25°48' W 080°15'0 0.0
2018-Feb-18 06:56N 25°48' W 080°15'0 0.0
2018-Feb-18 06:26N 25°48' W 080°15'0 0.0
2018-Feb-18 05:59N 25°48' W 080°15'0 0.0
2018-Feb-18 05:29N 25°48' W 080°15'0 0.0
2018-Feb-18 04:59N 25°48' W 080°15'0 0.0
2018-Feb-18 04:29N 25°48' W 080°15'0 0.0
2018-Feb-18 03:59N 25°48' W 080°15'0 0.0
2018-Feb-18 03:29N 25°48' W 080°15'0 0.0
2018-Feb-18 02:59N 25°48' W 080°15'0 0.0
2018-Feb-18 02:29N 25°48' W 080°15'0 0.0
2018-Feb-18 01:59N 25°48' W 080°15'0 0.0
2018-Feb-18 01:29N 25°48' W 080°15'0 0.0
2018-Feb-18 00:59N 25°48' W 080°15'0 0.0
2018-Feb-18 00:29N 25°48' W 080°15'0 0.0
2018-Feb-17 23:59N 25°48' W 080°15'0 0.0
2018-Feb-17 23:29N 25°48' W 080°15'0 0.0
2018-Feb-17 22:59N 25°48' W 080°15'0 0.0
2018-Feb-17 22:29N 25°48' W 080°15'0 0.0
2018-Feb-17 21:59N 25°48' W 080°15'0 0.0
2018-Feb-17 21:29N 25°48' W 080°15'0 0.0
2018-Feb-17 20:59N 25°48' W 080°15'0 0.0
2018-Feb-17 20:29N 25°48' W 080°15'0 0.0
2018-Feb-17 19:59N 25°48' W 080°15'0 0.0
2018-Feb-17 19:29N 25°48' W 080°15'0 0.0
2018-Feb-17 18:53N 25°48' W 080°15'0 0.0
2018-Feb-17 18:29N 25°48' W 080°15'0 0.0
2018-Feb-17 17:56N 25°48' W 080°15'0 0.0
2018-Feb-17 17:29N 25°48' W 080°15'0 0.0
2018-Feb-17 16:59N 25°48' W 080°15'0 0.0
2018-Feb-17 16:29N 25°48' W 080°15'0 0.0
2018-Feb-17 15:56N 25°48' W 080°15'0 0.0
2018-Feb-17 15:29N 25°48' W 080°15'0 0.0
2018-Feb-17 14:59N 25°48' W 080°15'0 0.0
2018-Feb-17 14:26N 25°48' W 080°15'0 0.0
2018-Feb-17 13:59N 25°48' W 080°15'0 0.0
2018-Feb-17 13:26N 25°48' W 080°15'0 0.0
2018-Feb-17 12:56N 25°48' W 080°15'0 0.0
2018-Feb-17 12:25N 25°48' W 080°15'0 0.0
2018-Feb-17 11:58N 25°48' W 080°15'0 0.0
2018-Feb-17 11:28N 25°48' W 080°15'0 0.0
2018-Feb-17 10:58N 25°48' W 080°15'0 0.0
2018-Feb-17 10:28N 25°48' W 080°15'0 0.0
2018-Feb-17 09:58N 25°48' W 080°15'0 0.0
2018-Feb-17 09:28N 25°48' W 080°15'0 0.0
2018-Feb-17 08:58N 25°48' W 080°15'0 0.0
2018-Feb-17 08:28N 25°48' W 080°15'0 0.0
2018-Feb-17 07:58N 25°48' W 080°15'0 0.0
2018-Feb-17 07:28N 25°48' W 080°15'0 0.0
2018-Feb-17 06:58N 25°48' W 080°15'0 0.0
2018-Feb-17 06:28N 25°48' W 080°15'0 0.0
2018-Feb-17 05:58N 25°48' W 080°15'0 0.0
2018-Feb-17 05:28N 25°48' W 080°15'0 0.0
2018-Feb-17 04:58N 25°48' W 080°15'0 0.0
2018-Feb-17 04:22N 25°48' W 080°15'0 0.0
2018-Feb-17 03:55N 25°48' W 080°15'0 0.0
2018-Feb-17 03:28N 25°48' W 080°15'0 0.0
2018-Feb-17 02:58N 25°48' W 080°15'0 0.0
2018-Feb-17 02:28N 25°48' W 080°15'0 0.0
2018-Feb-17 01:55N 25°48' W 080°15'0 0.0
2018-Feb-17 01:25N 25°48' W 080°15'0 0.0
2018-Feb-17 01:00N 25°48' W 080°15'0 0.0
2018-Feb-17 00:25N 25°48' W 080°15'0 0.0
2018-Feb-16 23:58N 25°48' W 080°15'0 0.0
2018-Feb-16 23:28N 25°48' W 080°15'0 0.0
2018-Feb-16 22:58N 25°48' W 080°15'0 0.0
2018-Feb-16 22:28N 25°48' W 080°15'0 0.0
2018-Feb-16 21:58N 25°48' W 080°15'0 0.0
2018-Feb-16 21:29N 25°48' W 080°15'0 0.0
2018-Feb-16 20:59N 25°48' W 080°15'0 0.0
2018-Feb-16 20:29N 25°48' W 080°15'0 0.0
2018-Feb-16 19:59N 25°48' W 080°15'0 0.0
2018-Feb-16 19:30N 25°48' W 080°15'0 0.0
2018-Feb-16 19:00N 25°48' W 080°15'0 0.0
2018-Feb-16 18:30N 25°48' W 080°15'0 0.0
2018-Feb-16 18:00N 25°48' W 080°15'0 0.0
2018-Feb-16 17:30N 25°48' W 080°15'1 2.3
2018-Feb-16 17:00N 25°47' W 080°14'2 3.5
2018-Feb-16 16:31N 25°47' W 080°12'1 3.0
2018-Feb-16 16:00N 25°46' W 080°11'3 5.4
2018-Feb-16 15:30N 25°46' W 080°08'3 7.0
2018-Feb-16 15:00N 25°44' W 080°05'510.7
2018-Feb-16 14:30N 25°39' W 080°04'611.8
2018-Feb-16 14:00N 25°33' W 080°03'  

Dump ship's entire track history